Time;durP1;ratioP1;P1;durP2;ratioP2;P2;SDS_P1;SDS_P2;PMS_P1;PMS_P2;Temp;Humidity;BMP_temperature;BMP_pressure;BME280_temperature;BME280_humidity;BME280_pressure;Samples;Min_cycle;Max_cycle;Signal;HPM_P1;HPM_P2
2023/11/22 00:01:39;;;;;;;14.85;6.87;;;;;;;-1.36;100.00;101567.84;5146616;56;1141118;-72
2023/11/22 00:06:45;;;;;;;20.63;7.53;;;;;;;-1.45;100.00;101568.39;5117102;56;1140813;-72
2023/11/22 00:11:51;;;;;;;11.90;6.37;;;;;;;-1.49;100.00;101582.70;5064784;56;1140824;-72
2023/11/22 00:16:57;;;;;;;17.07;6.93;;;;;;;-1.54;100.00;101573.70;5145612;56;1140728;-73
2023/11/22 00:22:11;;;;;;;21.63;7.83;;;;;;;-1.57;100.00;101580.20;5126572;56;1140864;-73
2023/11/22 00:27:10;;;;;;;16.20;7.53;;;;;;;-1.57;100.00;101588.42;5125033;56;1140791;-73
2023/11/22 00:32:15;;;;;;;14.40;7.60;;;;;;;-1.59;100.00;101591.03;5126743;56;1140987;-73
2023/11/22 00:37:21;;;;;;;16.93;7.60;;;;;;;-1.61;100.00;101603.59;5146705;56;1140894;-73
2023/11/22 00:42:27;;;;;;;14.33;8.20;;;;;;;-1.62;100.00;101603.17;4963407;58;1140894;-72
2023/11/22 00:47:34;;;;;;;14.45;7.97;;;;;;;-1.67;100.00;101607.53;5071040;57;1141058;-74
2023/11/22 00:52:44;;;;;;;14.20;6.87;;;;;;;-1.69;100.00;101614.50;5049008;57;1140976;-73
2023/11/22 00:57:47;;;;;;;18.23;8.17;;;;;;;-1.70;100.00;101618.83;4892819;58;1140884;-73
2023/11/22 01:02:53;;;;;;;15.87;7.47;;;;;;;-1.76;100.00;101633.13;5054570;57;1141009;-73
2023/11/22 01:07:59;;;;;;;13.47;7.07;;;;;;;-1.79;100.00;101635.74;5074286;57;1141092;-72
2023/11/22 01:13:04;;;;;;;14.70;7.43;;;;;;;-1.78;100.00;101642.22;5055304;57;1140938;-72
2023/11/22 01:18:10;;;;;;;13.08;8.10;;;;;;;-1.75;100.00;101643.06;5055064;56;1140966;-72
2023/11/22 01:23:15;;;;;;;16.15;8.00;;;;;;;-1.78;100.00;101634.88;5055853;57;1142965;-72
2023/11/22 01:28:21;;;;;;;24.27;11.00;;;;;;;-1.86;100.00;101650.95;5074529;57;1141075;-73
2023/11/22 01:33:27;;;;;;;24.77;11.13;;;;;;;-1.89;100.00;101657.45;5054667;57;1143162;-72
2023/11/22 01:38:32;;;;;;;20.63;8.43;;;;;;;-1.88;100.00;101650.09;5053991;56;1195671;-73
2023/11/22 01:43:39;;;;;;;19.70;7.97;;;;;;;-1.87;100.00;101650.09;5084796;56;1149226;-73
2023/11/22 01:48:45;;;;;;;22.17;9.08;;;;;;;-1.88;100.00;101648.80;5108293;56;1140791;-72
2023/11/22 01:53:53;;;;;;;18.80;8.43;;;;;;;-1.89;100.00;101663.50;5054564;57;1140917;-73
2023/11/22 01:59:00;;;;;;;15.63;7.83;;;;;;;-1.88;100.00;101669.55;5074451;57;1140887;-73
2023/11/22 02:04:06;;;;;;;15.90;7.90;;;;;;;-1.87;100.00;101682.93;5054567;57;1140869;-72
2023/11/22 02:09:15;;;;;;;17.43;8.97;;;;;;;-1.85;100.00;101713.17;5052376;57;1140821;-72
2023/11/22 02:14:19;;;;;;;22.55;8.73;;;;;;;-1.84;100.00;101722.67;5055481;57;1141058;-73
2023/11/22 02:19:25;;;;;;;18.30;8.40;;;;;;;-1.82;100.00;101729.97;5074410;56;1140996;-72
2023/11/22 02:24:33;;;;;;;18.50;9.77;;;;;;;-1.88;100.00;101730.03;5054743;56;1141030;-73
2023/11/22 02:29:38;;;;;;;18.63;8.53;;;;;;;-1.94;100.00;101735.25;5055550;56;1140939;-73
2023/11/22 02:34:44;;;;;;;19.57;8.43;;;;;;;-1.93;100.00;101725.31;5075331;56;1140906;-72
2023/11/22 02:40:08;;;;;;;24.02;9.63;;;;;;;-1.92;100.00;101730.92;5117272;56;1141051;-72
2023/11/22 02:45:14;;;;;;;20.13;8.90;;;;;;;-1.94;100.00;101719.70;5114278;56;1140857;-73
2023/11/22 02:50:21;;;;;;;19.93;7.97;;;;;;;-1.94;100.00;101736.55;5055115;57;1140613;-73
2023/11/22 02:55:27;;;;;;;16.83;8.40;;;;;;;-1.97;100.00;101752.12;5074203;57;1140886;-72
2023/11/22 03:00:34;;;;;;;17.10;8.40;;;;;;;-2.04;100.00;101753.05;5054878;57;1141065;-73
2023/11/22 03:05:42;;;;;;;14.30;7.53;;;;;;;-2.09;100.00;101756.09;5055897;57;1141024;-72
2023/11/22 03:10:48;;;;;;;20.97;9.08;;;;;;;-2.10;100.00;101747.02;5063739;57;1140926;-72
2023/11/22 03:15:53;;;;;;;19.27;9.80;;;;;;;-2.08;100.00;101737.08;5050854;57;1140971;-73
2023/11/22 03:21:01;;;;;;;19.30;9.37;;;;;;;-2.12;100.00;101758.26;5051012;57;1140898;-72
2023/11/22 03:26:06;;;;;;;19.90;9.53;;;;;;;-2.14;100.00;101757.86;5070894;57;1140977;-73
2023/11/22 03:31:12;;;;;;;29.23;11.00;;;;;;;-2.14;100.00;101764.34;5051238;57;1140922;-72
2023/11/22 03:36:19;;;;;;;39.27;17.07;;;;;;;-2.10;100.00;101766.46;5053868;56;1143029;-72
2023/11/22 03:41:25;;;;;;;20.57;9.77;;;;;;;-2.10;100.00;101759.98;5050214;56;1142912;-73
2023/11/22 03:46:31;;;;;;;26.33;11.77;;;;;;;-2.17;100.00;101776.88;4973214;58;1141010;-73
2023/11/22 03:51:39;;;;;;;21.90;9.57;;;;;;;-2.20;100.00;101770.41;5027778;57;1152220;-74
2023/11/22 03:56:45;;;;;;;18.97;9.80;;;;;;;-2.27;100.00;101775.62;5076861;57;1140885;-72
2023/11/22 04:01:50;;;;;;;21.97;9.88;;;;;;;-2.37;100.00;101781.72;5056856;57;1140677;-72
2023/11/22 04:06:56;;;;;;;35.93;15.63;;;;;;;-2.29;100.00;101791.62;5065687;56;1140926;-72
2023/11/22 04:12:01;;;;;;;38.65;17.80;;;;;;;-2.31;100.00;101814.95;5077004;57;1142952;-72
2023/11/22 04:17:07;;;;;;;53.37;20.33;;;;;;;-2.27;100.00;101819.23;5057517;57;1143096;-72
2023/11/22 04:22:12;;;;;;;77.73;28.00;;;;;;;-2.37;100.00;101821.44;5057416;57;1142796;-73
2023/11/22 04:27:18;;;;;;;48.70;19.60;;;;;;;-2.35;100.00;101831.80;5056552;57;1142903;-72
2023/11/22 04:32:24;;;;;;;41.90;16.80;;;;;;;-2.37;100.00;101841.30;5077352;56;1142917;-72
2023/11/22 04:37:31;;;;;;;40.55;17.25;;;;;;;-2.45;100.00;101838.75;5056439;56;1142999;-72
2023/11/22 04:42:37;;;;;;;47.80;18.52;;;;;;;-2.44;100.00;101847.39;5067542;57;1143126;-74
2023/11/22 04:47:43;;;;;;;44.45;19.27;;;;;;;-2.57;100.00;101858.19;5074918;56;1143045;-72
2023/11/22 04:52:49;;;;;;;38.53;17.03;;;;;;;-2.80;100.00;101862.56;5113759;56;1143083;-73
2023/11/22 04:57:54;;;;;;;49.03;17.27;;;;;;;-2.83;100.00;101886.72;5060243;56;1143103;-73
2023/11/22 05:03:00;;;;;;;81.83;27.20;;;;;;;-2.69;100.00;101911.30;5073788;57;1142977;-73
2023/11/22 05:08:06;;;;;;;68.17;23.83;;;;;;;-2.65;100.00;101901.37;5055215;57;1143086;-72
2023/11/22 05:13:11;;;;;;;46.63;18.60;;;;;;;-2.68;100.00;101914.33;5055256;56;1143035;-72
2023/11/22 05:18:17;;;;;;;44.10;18.80;;;;;;;-2.60;100.00;101915.20;5054945;57;1143048;-72
2023/11/22 05:23:23;;;;;;;45.60;18.00;;;;;;;-2.48;100.00;101928.13;5074493;57;1142982;-72
2023/11/22 05:28:28;;;;;;;46.33;19.90;;;;;;;-2.40;100.00;101926.80;5054881;57;1143305;-72
2023/11/22 05:33:34;;;;;;;47.63;18.33;;;;;;;-2.36;100.00;101925.94;5055011;56;1142933;-73
2023/11/22 05:38:39;;;;;;;45.97;17.07;;;;;;;-2.36;100.00;101914.27;5074884;57;1142879;-73
2023/11/22 05:43:45;;;;;;;45.80;21.20;;;;;;;-2.35;100.00;101918.59;5054905;57;1143090;-72
2023/11/22 05:48:51;;;;;;;35.52;18.62;;;;;;;-2.48;100.00;101922.94;5053681;57;1142880;-72
2023/11/22 05:53:57;;;;;;;42.62;18.57;;;;;;;-2.52;100.00;101931.57;5111946;56;1143019;-72
2023/11/22 05:59:02;;;;;;;41.57;18.10;;;;;;;-2.49;100.00;101929.84;5040602;57;1142999;-72
2023/11/22 06:04:09;;;;;;;66.47;19.73;;;;;;;-2.49;100.00;101935.03;5125361;56;1142910;-72
2023/11/22 06:09:15;;;;;;;54.00;19.03;;;;;;;-2.72;100.00;101942.37;5022526;57;1143133;-72
2023/11/22 06:14:21;;;;;;;88.20;31.77;;;;;;;-2.73;100.00;101960.06;5041679;57;1143116;-73
2023/11/22 06:19:26;;;;;;;84.80;31.20;;;;;;;-2.87;100.00;101969.98;5012204;57;1142950;-73
2023/11/22 06:24:33;;;;;;;61.97;26.00;;;;;;;-2.99;100.00;101972.56;5069092;56;1142998;-74
2023/11/22 06:29:38;;;;;;;56.43;26.37;;;;;;;-2.90;100.00;101963.94;5156000;56;1143087;-75
2023/11/22 06:34:44;;;;;;;95.77;35.47;;;;;;;-2.89;100.00;101963.94;5040455;57;1142938;-74
2023/11/22 06:39:50;;;;;;;100.20;37.40;;;;;;;-2.93;100.00;101969.14;5040814;56;1143013;-74
2023/11/22 06:45:00;;;;;;;102.50;40.95;;;;;;;-3.00;100.00;101985.50;5059668;57;1144996;-74
2023/11/22 06:50:08;;;;;;;101.53;38.30;;;;;;;-3.03;100.00;102004.91;5055229;56;1145167;-73
2023/11/22 06:55:11;;;;;;;181.20;65.57;;;;;;;-3.07;100.00;102009.23;5071299;55;1144881;-75
2023/11/22 07:00:17;;;;;;;225.10;79.57;;;;;;;-3.20;100.00;102031.59;5051076;56;1145169;-74
2023/11/22 07:05:23;;;;;;;249.53;89.23;;;;;;;-3.24;100.00;102033.77;5038292;57;1145043;-74
2023/11/22 07:10:33;;;;;;;109.63;39.63;;;;;;;-3.07;100.00;102036.84;5092934;56;1144920;-74
2023/11/22 07:15:36;;;;;;;98.10;33.20;;;;;;;-2.96;100.00;102060.58;5041047;56;1144998;-74
2023/11/22 07:20:42;;;;;;;134.13;40.07;;;;;;;-2.82;100.00;102067.52;5090692;56;1142915;-74
2023/11/22 07:25:48;;;;;;;139.80;49.60;;;;;;;-2.90;100.00;102084.30;5060335;56;1145115;-75
2023/11/22 07:30:53;;;;;;;117.37;39.88;;;;;;;-2.95;100.00;102090.78;5010653;57;1145046;-73
2023/11/22 07:35:59;;;;;;;85.10;30.17;;;;;;;-2.96;100.00;102089.05;5062052;55;1145029;-73
2023/11/22 07:41:04;;;;;;;49.40;20.57;;;;;;;-2.90;100.00;102079.12;5014296;57;1142888;-74
2023/11/22 07:46:12;;;;;;;47.13;21.00;;;;;;;-2.89;100.00;102073.95;5032005;57;1142903;-74
2023/11/22 07:51:18;;;;;;;79.17;35.60;;;;;;;-2.75;100.00;102062.80;5084063;56;1142870;-74
2023/11/22 07:56:23;;;;;;;99.40;40.67;;;;;;;-2.62;100.00;102047.70;5033899;56;1142877;-73
2023/11/22 08:01:31;;;;;;;104.17;39.80;;;;;;;-2.52;100.00;102025.68;5096335;56;1143076;-74
2023/11/22 08:06:36;;;;;;;104.00;39.23;;;;;;;-2.35;100.00;102037.77;5003079;57;1145013;-74
2023/11/22 08:11:42;;;;;;;105.47;38.90;;;;;;;-2.23;100.00;102033.44;5111416;56;1145145;-75
2023/11/22 08:16:47;;;;;;;126.90;52.08;;;;;;;-2.13;100.00;102006.64;5058976;56;1144954;-74
2023/11/22 08:21:54;;;;;;;99.73;39.07;;;;;;;-1.96;100.00;102023.89;5071787;56;1145054;-74
2023/11/22 08:26:59;;;;;;;73.50;30.27;;;;;;;-1.68;100.00;102020.34;5106928;56;1142857;-74
2023/11/22 08:32:06;;;;;;;61.85;26.55;;;;;;;-1.49;100.00;102015.53;5054840;56;1143017;-74
2023/11/22 08:37:12;;;;;;;48.67;20.07;;;;;;;-1.36;100.00;102021.52;4987102;57;1143097;-74
2023/11/22 08:42:19;;;;;;;45.23;20.50;;;;;;;-1.19;100.00;102018.41;5083557;56;1142987;-68
2023/11/22 08:47:24;;;;;;;43.67;20.37;;;;;;;-1.11;100.00;102026.17;5073666;57;1142839;-68
2023/11/22 08:52:30;;;;;;;42.27;19.17;;;;;;;-0.97;100.00;102037.34;5054102;56;1143004;-67
2023/11/22 08:57:40;;;;;;;35.83;16.20;;;;;;;-0.82;100.00;102042.88;5113268;56;1143005;-70
2023/11/22 09:02:47;;;;;;;27.37;13.03;;;;;;;-0.84;100.00;102057.60;5069401;56;1143012;-73
2023/11/22 09:07:55;;;;;;;32.03;15.43;;;;;;;-0.90;100.00;102077.97;5051198;56;1142847;-74
2023/11/22 09:13:00;;;;;;;35.83;15.35;;;;;;;-0.98;100.00;102068.08;4999364;57;1143172;-74
2023/11/22 09:18:06;;;;;;;31.40;16.30;;;;;;;-0.97;100.00;102052.92;5078426;56;1142845;-74
2023/11/22 09:23:14;;;;;;;27.47;13.13;;;;;;;-0.91;100.00;102050.70;5064711;56;1142972;-74
2023/11/22 09:28:19;;;;;;;38.08;17.87;;;;;;;-0.95;100.00;102059.41;5091337;55;1143065;-74
2023/11/22 09:33:25;;;;;;;34.90;17.13;;;;;;;-1.17;100.00;102059.94;5081426;56;1143258;-73
2023/11/22 09:38:30;;;;;;;34.90;16.47;;;;;;;-1.33;100.00;102059.58;5091677;56;1143187;-74
2023/11/22 09:43:39;;;;;;;40.47;18.63;;;;;;;-1.39;100.00;102064.37;5091452;56;1143231;-74
2023/11/22 09:48:48;;;;;;;42.30;20.00;;;;;;;-1.36;100.00;102069.53;5157633;56;1142824;-75
2023/11/22 09:53:59;;;;;;;30.97;15.03;;;;;;;-1.34;100.00;102071.69;5129863;56;1142757;-74
2023/11/22 09:59:07;;;;;;;30.40;14.55;;;;;;;-1.23;100.00;102079.45;5134366;56;1143125;-73
2023/11/22 10:04:13;;;;;;;29.77;14.73;;;;;;;-1.14;100.00;102084.16;5018388;57;1143151;-75
2023/11/22 10:09:19;;;;;;;23.27;12.37;;;;;;;-0.96;100.00;102090.14;5005550;57;1143101;-74
2023/11/22 10:14:27;;;;;;;31.40;15.13;;;;;;;-0.86;100.00;102083.58;5039570;56;1143194;-75
2023/11/22 10:19:34;;;;;;;30.10;16.13;;;;;;;-0.94;100.00;102068.49;5117617;56;1142891;-74
2023/11/22 10:24:40;;;;;;;42.30;19.17;;;;;;;-0.96;100.00;102044.70;5066458;56;1142920;-74
2023/11/22 10:29:48;;;;;;;71.50;25.00;;;;;;;-0.86;100.00;102047.66;5121404;56;1150742;-74
2023/11/22 10:34:53;;;;;;;45.03;18.82;;;;;;;-0.76;100.00;102041.08;5057766;56;1143029;-75
2023/11/22 10:40:00;;;;;;;51.87;21.00;;;;;;;-0.65;100.00;102057.06;5126573;56;1143111;-75
2023/11/22 10:45:07;;;;;;;63.53;22.27;;;;;;;-0.59;100.00;102050.06;4967513;57;1143072;-73
2023/11/22 10:50:13;;;;;;;45.93;25.50;;;;;;;-0.53;100.00;102061.72;5041156;57;1142959;-74
2023/11/22 10:55:21;;;;;;;40.60;19.12;;;;;;;-0.43;100.00;102052.11;5102474;56;1143065;-74
2023/11/22 11:00:27;;;;;;;42.07;20.40;;;;;;;-0.33;100.00;102056.82;5145910;56;1142980;-74
2023/11/22 11:05:35;;;;;;;31.53;14.53;;;;;;;-0.22;100.00;102044.14;5068196;56;1142793;-75
2023/11/22 11:10:45;;;;;;;28.97;14.60;;;;;;;-0.17;100.00;102026.78;5020057;57;1143516;-75
2023/11/22 11:15:52;;;;;;;32.93;17.42;;;;;;;0.05;100.00;102042.16;5007746;57;1142940;-74
2023/11/22 11:20:59;;;;;;;42.13;18.17;;;;;;;0.30;100.00;102045.81;4971963;57;1140840;-73
2023/11/22 11:26:22;;;;;;;55.70;20.27;;;;;;;0.63;100.00;102047.57;4977402;56;1140860;-75
2023/11/22 11:31:36;;;;;;;39.90;16.82;;;;;;;0.89;100.00;102042.91;5029349;56;1140886;-75
2023/11/22 11:36:42;;;;;;;31.23;15.60;;;;;;;1.16;100.00;102052.09;5063044;57;1140984;-74
2023/11/22 11:41:48;;;;;;;32.17;16.63;;;;;;;1.45;100.00;102032.54;5054335;56;1140828;-75
2023/11/22 11:46:54;;;;;;;29.65;14.95;;;;;;;1.77;100.00;102038.09;5053625;57;1140776;-75
2023/11/22 11:52:02;;;;;;;34.60;15.97;;;;;;;2.06;100.00;102034.53;5033684;57;1141021;-75
2023/11/22 11:57:08;;;;;;;145.83;37.97;;;;;;;2.19;100.00;102037.77;5054754;57;1140945;-76
2023/11/22 12:02:14;;;;;;;43.40;17.10;;;;;;;2.43;100.00;102029.92;5039586;56;1143054;-75
2023/11/22 12:07:19;;;;;;;107.23;56.97;;;;;;;2.79;100.00;102029.59;5099922;56;1140885;-75
2023/11/22 12:12:25;;;;;;;25.93;13.83;;;;;;;3.40;100.00;102017.30;5098346;56;1142983;-74
2023/11/22 12:17:31;;;;;;;24.17;12.77;;;;;;;3.95;100.00;102009.39;5042913;57;1140720;-74
2023/11/22 12:22:37;;;;;;;61.67;30.07;;;;;;;4.22;100.00;101999.92;5062058;56;1140688;-73
2023/11/22 12:27:47;;;;;;;41.30;20.37;;;;;;;4.56;100.00;101991.53;5120530;55;1141002;-75
2023/11/22 12:32:53;;;;;;;122.33;31.50;;;;;;;4.76;100.00;101993.98;5133977;56;1140939;-75
2023/11/22 12:38:02;;;;;;;25.40;11.20;;;;;;;4.94;100.00;101974.62;5085437;55;1142954;-74
2023/11/22 12:43:08;;;;;;;29.23;16.07;;;;;;;5.03;100.00;101964.78;5159795;56;1140970;-75
2023/11/22 12:48:29;;;;;;;21.57;11.67;;;;;;;5.20;100.00;101967.70;5136180;56;1140775;-75
2023/11/22 12:53:35;;;;;;;29.10;12.63;;;;;;;5.15;100.00;101963.07;5142156;55;1140579;-76
2023/11/22 12:58:41;;;;;;;23.13;11.30;;;;;;;5.11;100.00;101964.06;5137894;56;1140994;-74
2023/11/22 13:03:47;;;;;;;14.87;8.75;;;;;;;4.75;100.00;101973.92;5105890;56;1141184;-70
2023/11/22 13:08:52;;;;;;;21.27;13.05;;;;;;;4.30;100.00;101950.80;5092717;55;1138804;-66
2023/11/22 13:13:58;;;;;;;36.37;14.27;;;;;;;3.80;100.00;101929.98;5063094;56;1140914;-70
2023/11/22 13:19:04;;;;;;;13.47;8.50;;;;;;;3.22;100.00;101968.50;5042720;56;1140974;-69
2023/11/22 13:24:10;;;;;;;30.50;13.77;;;;;;;2.66;100.00;101976.75;5063236;56;1138798;-68
2023/11/22 13:29:16;;;;;;;23.18;11.70;;;;;;;2.39;100.00;101969.06;5112681;56;1141042;-66
2023/11/22 13:34:22;;;;;;;17.00;7.97;;;;;;;2.16;100.00;101980.84;5144822;56;1140918;-69
2023/11/22 13:39:27;;;;;;;11.63;7.07;;;;;;;2.00;100.00;101981.13;5118511;56;1138882;-69
2023/11/22 13:44:33;;;;;;;12.83;7.87;;;;;;;2.00;100.00;101981.13;5115427;56;1139026;-69
2023/11/22 13:49:45;;;;;;;55.13;21.80;;;;;;;2.04;100.00;101970.20;5136567;56;1139210;-70
2023/11/22 13:54:55;;;;;;;61.50;19.93;;;;;;;2.06;100.00;101959.30;5085336;56;1140930;-69
2023/11/22 13:59:58;;;;;;;28.92;12.90;;;;;;;2.05;100.00;101942.77;5101496;55;1140979;-69
2023/11/22 14:05:12;;;;;;;21.37;11.80;;;;;;;2.20;100.00;101970.31;5094384;56;1140855;-69
2023/11/22 14:10:16;;;;;;;15.87;8.13;;;;;;;2.06;100.00;101967.12;5083119;55;1140941;-72
2023/11/22 14:15:22;;;;;;;17.23;7.67;;;;;;;1.94;100.00;101981.71;5087547;56;1138769;-74
2023/11/22 14:20:29;;;;;;;17.47;9.93;;;;;;;1.76;100.00;101992.89;5047380;56;1138778;-72
2023/11/22 14:25:35;;;;;;;127.50;53.17;;;;;;;1.60;100.00;101959.28;5123991;55;1138782;-73
2023/11/22 14:30:41;;;;;;;77.53;38.60;;;;;;;1.53;100.00;101896.41;5057933;56;1142927;-74
2023/11/22 14:35:47;;;;;;;70.53;29.83;;;;;;;1.48;100.00;101901.70;5125269;56;1141100;-73
2023/11/22 14:40:52;;;;;;;43.37;19.83;;;;;;;1.12;100.00;101912.75;5138638;56;1140993;-74
2023/11/22 14:45:58;;;;;;;23.30;10.95;;;;;;;1.12;100.00;101912.75;4959518;57;1140873;-73
2023/11/22 14:51:04;;;;;;;20.35;10.10;;;;;;;0.92;100.00;101939.97;5042603;56;1141077;-73
2023/11/22 14:56:11;;;;;;;15.77;8.37;;;;;;;0.80;100.00;101928.87;5143523;56;1140710;-73
2023/11/22 15:01:17;;;;;;;53.87;29.73;;;;;;;0.72;100.00;101921.63;5126039;56;1138594;-73
2023/11/22 15:06:23;;;;;;;269.13;83.50;;;;;;;0.66;100.00;101906.51;5040992;57;1140885;-73
2023/11/22 15:11:30;;;;;;;145.10;43.93;;;;;;;0.68;100.00;101920.81;5146446;56;1142919;-73
2023/11/22 15:16:40;;;;;;;93.07;31.63;;;;;;;0.69;100.00;101919.92;5126250;56;1143272;-75
2023/11/22 15:21:42;;;;;;;72.20;26.23;;;;;;;0.76;100.00;101909.86;5114780;56;1141087;-73
2023/11/22 15:26:49;;;;;;;87.10;25.27;;;;;;;0.71;100.00;101931.19;5166189;56;1140777;-74
2023/11/22 15:31:55;;;;;;;33.75;15.63;;;;;;;0.60;100.00;101932.65;4953807;58;1140845;-74
2023/11/22 15:37:01;;;;;;;35.80;14.93;;;;;;;0.49;100.00;101938.42;5126347;56;1141024;-73
2023/11/22 15:42:07;;;;;;;24.60;12.90;;;;;;;0.33;100.00;101931.25;4978988;58;1141124;-73
2023/11/22 15:47:13;;;;;;;23.80;11.50;;;;;;;0.18;100.00;101938.39;5123703;56;1261886;-67
2023/11/22 15:52:18;;;;;;;22.43;11.10;;;;;;;0.10;100.00;101953.23;5125788;56;1140955;-67
2023/11/22 15:57:24;;;;;;;28.35;14.07;;;;;;;0.03;100.00;101954.17;5125479;56;1140869;-67
2023/11/22 16:02:29;;;;;;;30.27;13.50;;;;;;;-0.06;100.00;101946.05;5145911;56;1140714;-68
2023/11/22 16:07:35;;;;;;;47.27;23.50;;;;;;;-0.10;100.00;101956.05;5126644;56;1142909;-68
2023/11/22 16:12:40;;;;;;;67.40;29.77;;;;;;;-0.09;100.00;101942.17;5126504;56;1143016;-69
2023/11/22 16:17:46;;;;;;;72.72;31.75;;;;;;;-0.09;100.00;101927.88;5146654;56;1142953;-66
2023/11/22 16:22:52;;;;;;;118.43;54.87;;;;;;;-0.06;100.00;101926.11;5126974;56;1143316;-67
2023/11/22 16:27:59;;;;;;;155.43;64.17;;;;;;;0.08;100.00;101928.98;5125863;56;1145375;-69
2023/11/22 16:33:05;;;;;;;84.77;36.60;;;;;;;0.20;100.00;101943.14;5146564;55;1143101;-66
2023/11/22 16:38:10;;;;;;;132.50;65.30;;;;;;;0.22;100.00;101938.34;5092672;55;1141017;-67
2023/11/22 16:43:16;;;;;;;93.93;52.33;;;;;;;0.10;100.00;101935.03;5132826;56;1142844;-68
2023/11/22 16:48:21;;;;;;;80.20;33.87;;;;;;;0.00;100.00;101926.02;5057369;56;1141026;-66
2023/11/22 16:53:27;;;;;;;145.17;69.50;;;;;;;-0.10;100.00;101920.95;5135277;56;1140918;-70
2023/11/22 16:58:32;;;;;;;139.20;67.70;;;;;;;-0.18;100.00;101917.59;5099280;56;1145362;-69
2023/11/22 17:03:39;;;;;;;98.93;44.63;;;;;;;-0.25;100.00;101907.68;5124139;56;1145131;-68
2023/11/22 17:08:44;;;;;;;159.23;74.17;;;;;;;-0.29;100.00;101896.88;5111366;55;1142823;-73
2023/11/22 17:13:50;;;;;;;72.47;35.77;;;;;;;-0.34;100.00;101888.30;5063668;56;1246480;-74
2023/11/22 17:18:55;;;;;;;82.30;33.40;;;;;;;-0.38;100.00;101871.87;4957300;57;1142880;-71
2023/11/22 17:24:04;;;;;;;122.77;43.97;;;;;;;-0.43;100.00;101866.28;4977415;57;1142969;-72
2023/11/22 17:29:09;;;;;;;103.22;45.75;;;;;;;-0.50;100.00;101868.55;4957968;57;1145152;-72
2023/11/22 17:34:15;;;;;;;68.60;29.63;;;;;;;-0.52;100.00;101863.36;5008644;57;1145123;-70
2023/11/22 17:39:20;;;;;;;80.10;34.53;;;;;;;-0.56;100.00;101863.40;4982116;57;1143014;-75
2023/11/22 17:44:26;;;;;;;248.50;64.63;;;;;;;-0.54;100.00;101843.46;5121929;55;1143206;-75
2023/11/22 17:49:31;;;;;;;153.60;43.83;;;;;;;-0.55;100.00;101833.94;5102727;56;1144802;-74
2023/11/22 17:54:38;;;;;;;68.07;28.93;;;;;;;-0.58;100.00;101838.73;5125751;56;1144996;-73
2023/11/22 17:59:43;;;;;;;90.33;39.27;;;;;;;-0.61;100.00;101828.83;5146011;56;1143251;-71
2023/11/22 18:04:49;;;;;;;71.30;31.93;;;;;;;-0.62;100.00;101826.67;5125275;56;1142942;-75
2023/11/22 18:09:54;;;;;;;85.77;37.10;;;;;;;-0.64;100.00;101820.63;5135872;56;1142946;-73
2023/11/22 18:15:00;;;;;;;69.07;30.32;;;;;;;-0.65;100.00;101803.75;5159582;56;1143123;-71
2023/11/22 18:20:09;;;;;;;82.57;38.53;;;;;;;-0.66;100.00;101802.89;5140522;55;1142831;-71
2023/11/22 18:25:13;;;;;;;76.77;34.07;;;;;;;-0.66;100.00;101795.09;5141586;56;1142809;-73
2023/11/22 18:30:19;;;;;;;96.67;39.40;;;;;;;-0.64;100.00;101783.39;5142051;56;1143138;-74
2023/11/22 18:35:25;;;;;;;70.65;30.32;;;;;;;-0.73;100.00;101757.92;5112796;56;1143060;-72
2023/11/22 18:40:31;;;;;;;75.03;30.63;;;;;;;-0.73;100.00;101757.92;5118765;56;1143055;-74
2023/11/22 18:45:37;;;;;;;67.73;26.73;;;;;;;-0.66;100.00;101752.23;5054655;57;1143037;-71
2023/11/22 18:50:42;;;;;;;52.83;22.93;;;;;;;-0.64;100.00;101719.31;5145677;55;1142897;-75
2023/11/22 18:55:49;;;;;;;97.10;36.50;;;;;;;-0.65;100.00;101724.52;5061210;56;1143012;-72
2023/11/22 19:00:55;;;;;;;41.50;18.83;;;;;;;-0.69;100.00;101727.59;5055850;56;1143059;-74
2023/11/22 19:06:00;;;;;;;50.48;23.38;;;;;;;-0.74;100.00;101721.58;5135662;56;1143409;-72
2023/11/22 19:11:06;;;;;;;69.58;29.25;;;;;;;-0.80;100.00;101725.56;5140608;56;1142855;-71
2023/11/22 19:16:12;;;;;;;54.90;22.33;;;;;;;-0.80;100.00;101722.52;5136780;56;1143058;-75
2023/11/22 19:21:24;;;;;;;46.23;19.43;;;;;;;-0.83;100.00;101708.27;5102084;56;1143057;-76
2023/11/22 19:26:35;;;;;;;56.97;20.90;;;;;;;-0.87;100.00;101681.91;5071403;57;1143157;-72
2023/11/22 19:31:37;;;;;;;53.63;23.43;;;;;;;-0.89;100.00;101686.25;5126040;56;1143017;-77
2023/11/22 19:36:42;;;;;;;43.37;19.07;;;;;;;-0.87;100.00;101686.24;5136983;56;1144243;-74
2023/11/22 19:41:48;;;;;;;57.33;22.53;;;;;;;-0.88;100.00;101687.12;5155795;55;1142996;-76
2023/11/22 19:46:54;;;;;;;42.80;18.53;;;;;;;-0.92;100.00;101669.44;5137241;56;1142808;-77
2023/11/22 19:52:00;;;;;;;35.38;13.88;;;;;;;-0.92;100.00;101675.94;5123763;56;1143163;-76
2023/11/22 19:57:08;;;;;;;44.13;17.73;;;;;;;-0.93;100.00;101677.24;5076158;56;1142916;-74
2023/11/22 20:02:13;;;;;;;42.53;17.53;;;;;;;-0.94;100.00;101660.80;5109513;56;1261252;-76
2023/11/22 20:07:19;;;;;;;46.37;19.83;;;;;;;-0.96;100.00;101657.80;5118256;56;1142957;-76
2023/11/22 20:12:24;;;;;;;37.67;15.23;;;;;;;-0.99;100.00;101659.12;5063909;56;1142883;-77
2023/11/22 20:17:30;;;;;;;39.00;17.83;;;;;;;-1.00;100.00;101640.53;5072166;57;1143170;-75
2023/11/22 20:22:35;;;;;;;52.93;20.57;;;;;;;-1.03;100.00;101648.34;5052511;57;1143014;-74
2023/11/22 20:27:41;;;;;;;51.97;22.30;;;;;;;-1.07;100.00;101657.47;5098048;56;1143111;-77
2023/11/22 20:32:47;;;;;;;37.77;16.17;;;;;;;-1.12;100.00;101610.39;5157523;56;1143004;-72
2023/11/22 20:37:53;;;;;;;39.20;16.40;;;;;;;-1.12;100.00;101610.39;5123413;56;1142949;-74
2023/11/22 20:42:59;;;;;;;48.97;18.50;;;;;;;-1.14;100.00;101580.56;5096631;56;1143173;-72
2023/11/22 20:48:07;;;;;;;49.87;19.20;;;;;;;-1.13;100.00;101568.44;5073623;56;1142804;-73
2023/11/22 20:53:14;;;;;;;43.33;19.60;;;;;;;-1.13;100.00;101565.41;5023115;56;1143190;-75
2023/11/22 20:58:19;;;;;;;37.27;16.07;;;;;;;-1.15;100.00;101568.45;5122251;56;1143004;-74
2023/11/22 21:03:25;;;;;;;44.77;18.67;;;;;;;-1.18;100.00;101564.59;5104552;56;1143142;-74
2023/11/22 21:08:31;;;;;;;48.43;19.47;;;;;;;-1.16;100.00;101546.41;5156574;56;1142916;-73
2023/11/22 21:13:38;;;;;;;45.30;20.80;;;;;;;-1.15;100.00;101546.39;5136841;56;1143059;-74
2023/11/22 21:18:43;;;;;;;114.07;42.93;;;;;;;-1.20;100.00;101520.92;5136100;56;1142883;-71
2023/11/22 21:23:55;;;;;;;68.37;26.37;;;;;;;-1.19;100.00;101512.27;5157142;56;1145072;-70
2023/11/22 21:28:56;;;;;;;45.77;19.03;;;;;;;-1.18;100.00;101501.44;5136452;56;1143018;-72
2023/11/22 21:34:02;;;;;;;53.38;20.60;;;;;;;-1.21;100.00;101493.25;5135805;55;1142981;-73
2023/11/22 21:39:11;;;;;;;45.87;20.57;;;;;;;-1.22;100.00;101482.45;5151819;55;1142984;-70
2023/11/22 21:44:14;;;;;;;39.00;16.90;;;;;;;-1.24;100.00;101463.92;5138048;55;1142982;-71
2023/11/22 21:49:20;;;;;;;46.40;19.27;;;;;;;-1.24;100.00;101445.75;5131156;55;1143067;-74
2023/11/22 21:54:25;;;;;;;36.23;17.87;;;;;;;-1.27;100.00;101449.24;5088135;55;1142941;-73
2023/11/22 21:59:31;;;;;;;37.53;17.23;;;;;;;-1.33;100.00;101431.59;5109742;56;1143104;-72
2023/11/22 22:04:37;;;;;;;38.37;17.50;;;;;;;-1.38;100.00;101400.54;5137067;56;1142925;-71
2023/11/22 22:09:44;;;;;;;29.27;12.17;;;;;;;-1.39;100.00;101394.94;5157387;56;1142948;-71
2023/11/22 22:14:49;;;;;;;44.67;20.17;;;;;;;-1.43;100.00;101371.20;5136805;56;1142771;-70
2023/11/22 22:19:55;;;;;;;40.00;17.03;;;;;;;-1.47;100.00;101361.30;5121667;56;1142685;-74
2023/11/22 22:25:01;;;;;;;44.35;19.67;;;;;;;-1.46;100.00;101350.48;5142143;56;1146098;-71
2023/11/22 22:30:08;;;;;;;29.00;12.97;;;;;;;-1.48;100.00;101331.05;5055563;56;1142708;-72